Time;durP1;ratioP1;P1;durP2;ratioP2;P2;SDS_P1;SDS_P2;PMS_P1;PMS_P2;Temp;Humidity;BMP_temperature;BMP_pressure;BME280_temperature;BME280_humidity;BME280_pressure;Samples;Min_cycle;Max_cycle;Signal;HPM_P1;HPM_P2
2021/07/07 00:01:17;;;;;;;3.05;0.50;;;15.60;99.90;;;;;;4802456;29;20050;-81
2021/07/07 00:03:44;;;;;;;1.73;0.50;;;15.70;99.90;;;;;;4773289;29;20496;-81
2021/07/07 00:06:10;;;;;;;1.52;0.50;;;15.70;99.90;;;;;;4773136;29;20572;-81
2021/07/07 00:08:37;;;;;;;1.80;0.50;;;15.70;99.90;;;;;;4771243;29;20035;-81
2021/07/07 00:11:03;;;;;;;0.82;0.40;;;15.80;99.90;;;;;;4756280;29;20384;-81
2021/07/07 00:13:30;;;;;;;1.67;0.40;;;15.80;99.90;;;;;;4757194;29;20423;-81
2021/07/07 00:15:57;;;;;;;1.83;0.50;;;15.80;99.90;;;;;;4787138;29;20035;-81
2021/07/07 00:18:24;;;;;;;2.80;0.80;;;15.80;99.90;;;;;;4803062;29;20050;-81
2021/07/07 00:20:54;;;;;;;2.97;0.70;;;15.80;99.90;;;;;;4743443;29;20806;-82
2021/07/07 00:23:25;;;;;;;2.28;0.50;;;15.70;99.90;;;;;;4786214;29;20059;-77
2021/07/07 00:25:53;;;;;;;2.72;0.43;;;15.60;99.90;;;;;;4758071;29;20047;-77
2021/07/07 00:28:21;;;;;;;2.58;0.50;;;15.60;99.90;;;;;;4752379;29;20058;-77
2021/07/07 00:30:51;;;;;;;3.33;0.47;;;15.50;99.90;;;;;;4801659;29;20059;-77
2021/07/07 00:33:18;;;;;;;1.77;0.47;;;15.50;99.90;;;;;;4740684;29;20518;-77
2021/07/07 00:35:45;;;;;;;2.45;0.43;;;15.40;99.90;;;;;;4772551;29;20693;-77
2021/07/07 00:38:13;;;;;;;1.70;0.47;;;15.40;99.90;;;;;;4767829;29;20067;-77
2021/07/07 00:40:41;;;;;;;2.90;0.50;;;15.30;99.90;;;;;;4784135;29;20035;-82
2021/07/07 00:43:08;;;;;;;2.38;0.40;;;15.30;99.90;;;;;;4785401;29;20411;-82
2021/07/07 00:45:35;;;;;;;2.92;0.55;;;15.20;99.90;;;;;;4787780;29;20477;-77
2021/07/07 00:48:02;;;;;;;2.17;0.50;;;15.10;99.90;;;;;;4788120;29;20423;-77
2021/07/07 00:50:29;;;;;;;3.08;0.82;;;15.10;99.90;;;;;;4799496;29;20046;-77
2021/07/07 00:52:56;;;;;;;2.22;0.40;;;15.00;99.90;;;;;;4803150;29;20042;-77
2021/07/07 00:55:24;;;;;;;2.08;0.60;;;15.00;99.90;;;;;;4784910;29;20043;-77
2021/07/07 00:57:51;;;;;;;1.92;0.60;;;14.90;99.90;;;;;;4773714;29;20042;-77
2021/07/07 01:00:20;;;;;;;2.17;0.50;;;14.90;99.90;;;;;;4786273;29;20049;-77
2021/07/07 01:02:49;;;;;;;2.22;0.60;;;14.80;99.90;;;;;;4799421;29;20049;-77
2021/07/07 01:05:16;;;;;;;2.35;0.50;;;14.80;99.90;;;;;;4804796;29;20050;-77
2021/07/07 01:07:43;;;;;;;1.35;0.40;;;14.70;99.90;;;;;;4801979;29;20471;-77
2021/07/07 01:10:12;;;;;;;3.45;0.60;;;14.70;99.90;;;;;;4767883;29;20047;-77
2021/07/07 01:12:38;;;;;;;3.22;0.55;;;14.60;99.90;;;;;;4754963;29;20053;-77
2021/07/07 01:15:08;;;;;;;2.35;0.50;;;14.60;99.90;;;;;;4785378;29;20042;-77
2021/07/07 01:17:35;;;;;;;2.67;0.50;;;14.60;99.90;;;;;;4785129;29;20047;-77
2021/07/07 01:20:08;;;;;;;2.83;0.50;;;14.50;99.90;;;;;;4804660;29;20037;-77
2021/07/07 01:22:34;;;;;;;3.20;0.50;;;14.50;99.90;;;;;;4783697;29;20061;-77
2021/07/07 01:25:00;;;;;;;2.35;0.60;;;14.40;99.90;;;;;;4787701;29;20053;-77
2021/07/07 01:27:27;;;;;;;5.70;0.80;;;14.40;99.90;;;;;;4802667;29;20043;-81
2021/07/07 01:29:54;;;;;;;2.40;0.70;;;14.40;99.90;;;;;;4800709;29;20053;-82
2021/07/07 01:32:21;;;;;;;1.70;0.68;;;14.40;99.90;;;;;;4804169;29;20399;-77
2021/07/07 01:34:47;;;;;;;2.63;0.60;;;14.30;99.90;;;;;;4783546;29;20038;-77
2021/07/07 01:37:14;;;;;;;2.95;0.70;;;14.30;99.90;;;;;;4783374;29;20042;-78
2021/07/07 01:39:41;;;;;;;3.72;0.60;;;14.30;99.90;;;;;;4770828;29;20046;-77
2021/07/07 01:42:08;;;;;;;2.63;0.65;;;14.20;99.90;;;;;;4756392;29;20085;-77
2021/07/07 01:44:35;;;;;;;3.72;0.70;;;14.30;99.90;;;;;;4789007;29;20050;-82
2021/07/07 01:47:03;;;;;;;2.03;0.60;;;14.20;99.90;;;;;;4787323;29;20055;-82
2021/07/07 01:49:30;;;;;;;1.92;0.60;;;14.20;99.90;;;;;;4786443;29;20165;-81
2021/07/07 01:51:57;;;;;;;2.28;0.60;;;14.20;99.90;;;;;;4771368;29;20046;-81
2021/07/07 01:54:24;;;;;;;3.72;0.60;;;14.10;99.90;;;;;;4756592;29;20042;-82
2021/07/07 01:56:50;;;;;;;4.72;0.77;;;14.10;99.90;;;;;;4771904;29;20051;-82
2021/07/07 01:59:17;;;;;;;3.60;0.80;;;14.10;99.90;;;;;;4786436;29;20042;-81
2021/07/07 02:01:43;;;;;;;4.32;1.00;;;14.00;99.90;;;;;;4785339;29;20046;-81
2021/07/07 02:04:10;;;;;;;2.28;0.60;;;14.00;99.90;;;;;;4755935;29;20538;-81
2021/07/07 02:06:36;;;;;;;6.13;0.82;;;14.10;99.90;;;;;;4770193;29;20049;-82
2021/07/07 02:09:05;;;;;;;2.30;0.80;;;14.00;99.90;;;;;;4772537;29;20046;-81
2021/07/07 02:11:33;;;;;;;2.63;0.70;;;14.00;99.90;;;;;;4756889;29;20829;-81
2021/07/07 02:13:59;;;;;;;2.83;0.70;;;14.00;99.90;;;;;;4804330;29;20049;-82
2021/07/07 02:16:26;;;;;;;3.47;0.90;;;14.00;99.90;;;;;;4769633;29;20062;-81
2021/07/07 02:18:53;;;;;;;4.10;0.80;;;13.90;99.90;;;;;;4756155;29;20063;-81
2021/07/07 02:21:20;;;;;;;4.65;0.98;;;13.90;99.90;;;;;;4784544;29;20058;-81
2021/07/07 02:23:46;;;;;;;2.45;0.70;;;13.90;99.90;;;;;;4801554;29;20081;-81
2021/07/07 02:26:13;;;;;;;1.67;0.63;;;13.90;99.90;;;;;;4799691;29;20933;-81
2021/07/07 02:28:39;;;;;;;4.55;1.10;;;13.80;99.90;;;;;;4785328;29;20051;-81
2021/07/07 02:31:05;;;;;;;2.70;0.95;;;13.80;99.90;;;;;;4754543;29;20039;-81
2021/07/07 02:33:32;;;;;;;1.65;0.60;;;13.80;99.90;;;;;;4770110;29;20503;-81
2021/07/07 02:35:58;;;;;;;1.42;0.68;;;13.80;99.90;;;;;;4755021;29;20057;-81
2021/07/07 02:38:25;;;;;;;3.55;0.88;;;13.70;99.90;;;;;;4802377;29;20043;-81
2021/07/07 02:40:55;;;;;;;2.33;1.00;;;13.70;99.90;;;;;;4784347;29;20054;-82
2021/07/07 02:43:21;;;;;;;2.90;1.10;;;13.70;99.90;;;;;;4800883;29;20049;-81
2021/07/07 02:45:48;;;;;;;1.92;1.10;;;13.70;99.90;;;;;;4784718;29;20062;-81
2021/07/07 02:48:15;;;;;;;3.33;1.13;;;13.70;99.90;;;;;;4784916;29;20511;-81
2021/07/07 02:50:42;;;;;;;3.33;0.98;;;13.70;99.90;;;;;;4784184;29;20074;-81
2021/07/07 02:53:15;;;;;;;2.10;0.98;;;13.70;99.90;;;;;;4788402;29;20035;-81
2021/07/07 02:55:42;;;;;;;3.40;1.10;;;13.70;99.90;;;;;;4783495;29;20039;-81
2021/07/07 02:58:09;;;;;;;3.78;1.10;;;13.70;99.90;;;;;;4785616;29;20047;-81
2021/07/07 03:00:39;;;;;;;3.22;1.33;;;13.60;99.90;;;;;;4785584;29;20046;-81
2021/07/07 03:03:09;;;;;;;2.45;1.00;;;13.60;99.90;;;;;;4786731;29;20042;-81
2021/07/07 03:05:40;;;;;;;2.67;1.30;;;13.60;99.90;;;;;;4803199;29;20050;-81
2021/07/07 03:08:08;;;;;;;3.35;0.80;;;13.60;99.90;;;;;;4801545;29;20038;-81
2021/07/07 03:10:34;;;;;;;3.60;1.00;;;13.60;99.90;;;;;;4793262;29;20050;-81
2021/07/07 03:13:01;;;;;;;3.03;0.90;;;13.60;99.90;;;;;;4776061;29;20495;-80
2021/07/07 03:15:27;;;;;;;5.50;0.80;;;13.60;99.90;;;;;;4787481;29;20054;-80
2021/07/07 03:17:55;;;;;;;3.30;1.17;;;13.60;99.90;;;;;;4805562;29;20049;-81
2021/07/07 03:20:22;;;;;;;2.13;1.00;;;13.70;99.90;;;;;;4806345;29;20045;-80
2021/07/07 03:22:49;;;;;;;2.42;0.80;;;13.80;99.90;;;;;;4776470;29;20058;-80
2021/07/07 03:25:16;;;;;;;2.58;0.80;;;13.80;99.90;;;;;;4806590;29;20085;-81
2021/07/07 03:27:42;;;;;;;3.10;0.85;;;13.90;99.90;;;;;;4788053;29;20051;-81
2021/07/07 03:30:10;;;;;;;2.15;1.05;;;13.90;99.90;;;;;;4807669;29;20104;-77
2021/07/07 03:32:36;;;;;;;3.47;1.00;;;13.80;99.90;;;;;;4790744;29;20569;-76
2021/07/07 03:35:03;;;;;;;2.60;1.08;;;13.80;99.90;;;;;;4758513;29;20047;-77
2021/07/07 03:37:30;;;;;;;2.33;1.40;;;13.70;99.90;;;;;;4805742;29;20038;-77
2021/07/07 03:39:57;;;;;;;5.05;1.45;;;13.70;99.90;;;;;;4786708;29;20039;-77
2021/07/07 03:42:23;;;;;;;5.50;1.27;;;13.70;99.90;;;;;;4756401;29;20058;-77
2021/07/07 03:44:50;;;;;;;3.45;1.20;;;13.70;99.90;;;;;;4771817;29;20055;-77
2021/07/07 03:47:16;;;;;;;4.50;1.40;;;13.80;99.90;;;;;;4786729;29;20426;-77
2021/07/07 03:49:43;;;;;;;3.90;1.30;;;13.90;99.90;;;;;;4786470;29;20038;-77
2021/07/07 03:52:10;;;;;;;4.55;1.75;;;13.90;99.90;;;;;;4792146;29;20046;-77
2021/07/07 03:54:36;;;;;;;5.75;1.80;;;14.00;99.90;;;;;;4806185;29;20072;-77
2021/07/07 03:57:03;;;;;;;4.50;1.65;;;14.10;99.90;;;;;;4791410;29;20499;-77
2021/07/07 03:59:29;;;;;;;5.97;1.60;;;14.20;99.90;;;;;;4775076;29;20051;-77
2021/07/07 04:01:55;;;;;;;3.28;1.30;;;14.30;99.90;;;;;;4774072;29;20050;-77
2021/07/07 04:04:22;;;;;;;2.55;1.10;;;14.30;99.90;;;;;;4789639;29;20487;-77
2021/07/07 04:06:48;;;;;;;2.85;1.25;;;14.40;99.90;;;;;;4774223;29;20042;-77
2021/07/07 04:09:18;;;;;;;2.55;1.02;;;14.40;99.90;;;;;;4787739;29;20063;-77
2021/07/07 04:11:46;;;;;;;4.05;1.30;;;14.40;99.90;;;;;;4787819;29;20051;-77
2021/07/07 04:14:12;;;;;;;4.03;1.45;;;14.40;99.90;;;;;;4807712;29;20046;-77
2021/07/07 04:16:38;;;;;;;4.88;1.10;;;14.40;99.90;;;;;;4755434;29;20051;-77
2021/07/07 04:19:05;;;;;;;4.72;1.50;;;14.40;99.90;;;;;;4806746;29;20047;-77
2021/07/07 04:21:31;;;;;;;2.38;1.40;;;14.30;99.90;;;;;;4801191;29;20419;-77
2021/07/07 04:23:58;;;;;;;2.15;1.17;;;14.30;99.90;;;;;;4772672;29;20610;-77
2021/07/07 04:26:24;;;;;;;4.97;1.23;;;14.30;99.90;;;;;;4778253;29;20046;-77
2021/07/07 04:28:51;;;;;;;5.22;1.65;;;14.30;99.90;;;;;;4743796;29;20089;-77
2021/07/07 04:31:17;;;;;;;4.82;1.23;;;14.30;99.90;;;;;;4772767;29;20062;-77
2021/07/07 04:33:44;;;;;;;2.30;1.05;;;14.40;99.90;;;;;;4799662;29;20039;-77
2021/07/07 04:36:10;;;;;;;4.00;1.40;;;14.40;99.90;;;;;;4739413;29;20043;-77
2021/07/07 04:38:38;;;;;;;4.35;1.25;;;14.40;99.90;;;;;;4764672;29;20058;-77
2021/07/07 04:41:04;;;;;;;4.45;1.05;;;14.50;99.90;;;;;;4786713;29;20046;-77
2021/07/07 04:43:31;;;;;;;3.83;1.00;;;14.50;99.90;;;;;;4789958;29;20051;-77
2021/07/07 04:45:57;;;;;;;3.35;1.25;;;14.50;99.90;;;;;;4754145;29;20718;-77
2021/07/07 04:48:24;;;;;;;4.80;1.40;;;14.50;99.90;;;;;;4757877;29;20059;-77
2021/07/07 04:50:50;;;;;;;4.80;1.45;;;14.50;99.90;;;;;;4770752;29;20510;-77
2021/07/07 04:53:16;;;;;;;3.72;1.40;;;14.60;99.90;;;;;;4799128;29;20047;-77
2021/07/07 04:55:43;;;;;;;2.78;1.27;;;14.80;99.90;;;;;;4744630;29;20057;-77
2021/07/07 04:58:10;;;;;;;4.00;2.05;;;14.90;99.90;;;;;;4785208;29;20075;-77
2021/07/07 05:00:36;;;;;;;3.63;1.50;;;15.10;99.90;;;;;;4785289;29;20038;-77
2021/07/07 05:03:03;;;;;;;2.75;1.10;;;15.30;99.90;;;;;;4758153;29;20431;-77
2021/07/07 05:05:29;;;;;;;4.43;1.40;;;15.50;99.90;;;;;;4784348;29;20047;-77
2021/07/07 05:07:56;;;;;;;5.43;1.13;;;15.80;99.90;;;;;;4798659;29;20038;-77
2021/07/07 05:10:22;;;;;;;4.15;1.20;;;16.00;99.90;;;;;;4769288;29;20066;-77
2021/07/07 05:12:49;;;;;;;4.10;1.60;;;16.10;99.90;;;;;;4783920;29;20054;-78
2021/07/07 05:15:18;;;;;;;3.60;1.30;;;16.10;99.90;;;;;;4771422;29;20050;-78
2021/07/07 05:17:45;;;;;;;4.63;1.42;;;16.10;99.90;;;;;;4788682;29;20062;-78
2021/07/07 05:20:16;;;;;;;2.92;1.38;;;16.20;99.90;;;;;;4783927;29;20917;-84
2021/07/07 05:22:43;;;;;;;4.47;1.30;;;16.30;99.90;;;;;;4783871;29;20051;-82
2021/07/07 05:25:15;;;;;;;5.55;1.77;;;16.30;99.90;;;;;;4788105;29;20039;-79
2021/07/07 05:27:42;;;;;;;6.18;1.73;;;16.40;99.90;;;;;;4789566;29;20077;-78
2021/07/07 05:30:10;;;;;;;3.22;1.40;;;16.50;99.90;;;;;;4802883;29;20043;-78
2021/07/07 05:32:37;;;;;;;4.60;1.33;;;16.50;99.90;;;;;;4754323;29;20062;-78
2021/07/07 05:35:04;;;;;;;5.03;1.60;;;16.60;99.90;;;;;;4804923;29;20042;-78
2021/07/07 05:37:31;;;;;;;4.65;1.48;;;16.60;99.90;;;;;;4785887;29;20062;-77
2021/07/07 05:39:57;;;;;;;5.40;1.58;;;16.70;99.90;;;;;;4789247;29;20415;-78
2021/07/07 05:42:24;;;;;;;3.63;1.30;;;16.70;99.90;;;;;;4783949;29;20055;-79
2021/07/07 05:44:54;;;;;;;4.93;1.38;;;16.70;99.90;;;;;;4787693;29;20050;-78
2021/07/07 05:47:24;;;;;;;7.35;1.00;;;16.80;99.90;;;;;;4788336;29;20046;-77
2021/07/07 05:49:55;;;;;;;5.65;1.88;;;16.80;99.90;;;;;;4783991;29;20058;-78
2021/07/07 05:52:24;;;;;;;5.03;1.73;;;16.90;99.90;;;;;;4759822;29;20493;-78
2021/07/07 05:54:51;;;;;;;5.30;1.52;;;16.90;99.90;;;;;;4769551;29;20046;-77
2021/07/07 05:57:19;;;;;;;4.78;1.58;;;17.00;99.90;;;;;;4802173;29;20046;-78
2021/07/07 05:59:45;;;;;;;4.65;1.45;;;17.10;99.90;;;;;;4759696;29;20051;-82
2021/07/07 06:02:13;;;;;;;3.60;1.58;;;17.20;99.90;;;;;;4784898;29;20495;-82
2021/07/07 06:04:41;;;;;;;4.97;1.55;;;17.20;99.90;;;;;;4799710;29;20039;-82
2021/07/07 06:07:08;;;;;;;5.07;1.50;;;17.10;99.90;;;;;;4798457;29;20054;-82
2021/07/07 06:09:34;;;;;;;6.00;1.38;;;17.10;99.90;;;;;;4801276;29;20042;-80
2021/07/07 06:12:01;;;;;;;4.63;1.42;;;17.20;99.90;;;;;;4799137;29;20064;-82
2021/07/07 06:14:27;;;;;;;6.75;1.50;;;17.20;99.90;;;;;;4798018;29;20034;-82
2021/07/07 06:16:53;;;;;;;5.00;1.77;;;17.20;99.90;;;;;;4783882;29;20071;-84
2021/07/07 06:19:20;;;;;;;6.60;2.10;;;17.30;99.90;;;;;;4783080;29;20051;-83
2021/07/07 06:21:46;;;;;;;6.65;1.75;;;17.40;99.90;;;;;;4798956;29;20435;-82
2021/07/07 06:24:14;;;;;;;6.13;1.50;;;17.40;99.90;;;;;;4769837;29;20146;-82
2021/07/07 06:26:40;;;;;;;6.53;2.08;;;17.40;99.90;;;;;;4801978;29;20518;-83
2021/07/07 06:29:07;;;;;;;9.93;2.08;;;17.40;99.90;;;;;;4783291;29;20525;-83
2021/07/07 06:31:33;;;;;;;6.05;1.38;;;17.50;99.90;;;;;;4787784;29;20051;-83
2021/07/07 06:34:00;;;;;;;5.30;1.67;;;17.50;99.90;;;;;;4782902;29;20054;-82
2021/07/07 06:36:27;;;;;;;5.82;2.03;;;17.70;99.90;;;;;;4784351;29;20058;-82
2021/07/07 06:38:53;;;;;;;6.55;1.77;;;17.80;99.90;;;;;;4783492;29;20073;-82
2021/07/07 06:41:19;;;;;;;7.82;1.63;;;17.90;99.90;;;;;;4754927;29;20051;-82
2021/07/07 06:43:46;;;;;;;6.00;1.45;;;18.00;99.90;;;;;;4790077;29;20766;-81
2021/07/07 06:46:13;;;;;;;7.93;1.90;;;18.10;99.90;;;;;;4749041;29;20048;-82
2021/07/07 06:48:39;;;;;;;4.97;1.80;;;18.20;99.90;;;;;;4758057;29;20047;-82
2021/07/07 06:51:05;;;;;;;8.65;3.17;;;18.30;99.90;;;;;;4766452;29;20393;-82
2021/07/07 06:53:32;;;;;;;9.73;2.65;;;18.20;99.90;;;;;;4771502;29;20047;-81
2021/07/07 06:55:58;;;;;;;6.78;1.60;;;18.20;99.90;;;;;;4773410;29;20051;-82
2021/07/07 06:58:25;;;;;;;3.80;1.50;;;18.30;99.90;;;;;;4786372;29;20042;-82
2021/07/07 07:00:51;;;;;;;4.43;1.35;;;18.50;99.90;;;;;;4789822;29;20055;-81
2021/07/07 07:03:17;;;;;;;7.55;1.85;;;18.60;99.90;;;;;;4802922;29;20503;-82
2021/07/07 07:05:46;;;;;;;5.75;1.67;;;18.80;99.90;;;;;;4787067;29;20046;-83
2021/07/07 07:08:15;;;;;;;5.22;1.83;;;18.80;99.90;;;;;;4772900;29;20053;-83
2021/07/07 07:10:42;;;;;;;6.18;1.90;;;18.90;99.80;;;;;;4803667;29;20043;-82
2021/07/07 07:13:09;;;;;;;6.95;1.92;;;18.90;99.70;;;;;;4755689;29;20070;-83
2021/07/07 07:15:35;;;;;;;6.22;2.22;;;19.00;99.60;;;;;;4805682;29;20039;-83
2021/07/07 07:18:01;;;;;;;6.43;2.20;;;19.00;99.60;;;;;;4772685;29;20043;-83
2021/07/07 07:20:30;;;;;;;5.38;1.90;;;19.10;99.60;;;;;;4786876;29;20632;-82
2021/07/07 07:23:01;;;;;;;4.40;1.58;;;19.20;99.50;;;;;;4772907;29;20415;-83
2021/07/07 07:25:27;;;;;;;5.25;1.90;;;19.30;99.30;;;;;;4804256;29;20043;-83
2021/07/07 07:27:54;;;;;;;9.25;1.30;;;19.30;99.20;;;;;;4789893;29;20053;-83
2021/07/07 07:30:21;;;;;;;4.97;2.45;;;19.50;99.30;;;;;;4770749;29;20078;-82
2021/07/07 07:32:49;;;;;;;5.80;1.70;;;19.60;99.00;;;;;;4787273;29;20050;-82
2021/07/07 07:35:18;;;;;;;7.00;1.98;;;19.80;98.90;;;;;;4799161;29;20031;-83
2021/07/07 07:37:50;;;;;;;7.30;1.70;;;20.20;98.60;;;;;;4779504;29;20042;-83
2021/07/07 07:40:32;;;;;;;5.72;1.67;;;20.50;97.90;;;;;;4801710;29;20114;-82
2021/07/07 07:42:58;;;;;;;5.53;1.50;;;20.50;97.30;;;;;;4801131;29;20042;-83
2021/07/07 07:45:25;;;;;;;5.18;1.23;;;20.70;97.30;;;;;;4802393;29;20039;-82
2021/07/07 07:47:51;;;;;;;7.97;1.17;;;20.90;97.10;;;;;;4757991;29;20054;-83
2021/07/07 07:50:18;;;;;;;6.50;1.55;;;21.00;96.90;;;;;;4787244;29;20039;-82
2021/07/07 07:52:45;;;;;;;6.90;1.25;;;21.30;96.50;;;;;;4785390;29;20054;-82
2021/07/07 07:55:12;;;;;;;5.45;1.30;;;21.60;95.80;;;;;;4787778;29;20062;-82
2021/07/07 07:57:39;;;;;;;6.00;1.40;;;21.90;94.50;;;;;;4785535;29;20047;-82
2021/07/07 08:00:18;;;;;;;6.00;1.25;;;22.00;94.30;;;;;;4768929;29;20054;-82
2021/07/07 08:02:46;;;;;;;5.78;1.15;;;22.20;94.00;;;;;;4799389;29;20039;-83
2021/07/07 08:05:14;;;;;;;5.88;1.30;;;22.40;93.70;;;;;;4785294;29;20055;-83
2021/07/07 08:07:41;;;;;;;10.43;1.52;;;22.50;93.40;;;;;;4805316;29;20054;-83
2021/07/07 08:10:09;;;;;;;5.68;1.35;;;22.70;92.70;;;;;;4801451;29;20050;-83
2021/07/07 08:12:36;;;;;;;5.72;2.03;;;22.80;92.20;;;;;;4769727;29;20096;-82
2021/07/07 08:15:04;;;;;;;5.38;1.30;;;22.90;92.10;;;;;;4805497;29;20046;-83
2021/07/07 08:17:31;;;;;;;7.18;1.10;;;23.00;91.80;;;;;;4801565;29;20043;-83
2021/07/07 08:19:58;;;;;;;5.53;1.02;;;23.10;91.40;;;;;;4787957;29;20050;-83
2021/07/07 08:22:25;;;;;;;4.07;1.00;;;23.10;90.90;;;;;;4770002;29;20054;-82
2021/07/07 08:24:52;;;;;;;3.97;1.08;;;23.30;91.00;;;;;;4785313;29;20046;-82
2021/07/07 08:27:19;;;;;;;4.63;0.80;;;23.40;90.70;;;;;;4756364;29;20050;-83
2021/07/07 08:29:45;;;;;;;4.38;0.98;;;23.50;90.50;;;;;;4786286;29;20356;-82
2021/07/07 08:32:12;;;;;;;4.72;1.10;;;23.60;89.30;;;;;;4789341;29;20059;-83
2021/07/07 08:34:39;;;;;;;5.13;0.70;;;23.50;89.20;;;;;;4770679;29;20403;-82
2021/07/07 08:37:05;;;;;;;7.15;1.15;;;23.50;89.40;;;;;;4786533;29;20081;-82
2021/07/07 08:39:32;;;;;;;5.28;0.90;;;23.60;88.00;;;;;;4789244;29;20054;-83
2021/07/07 08:41:59;;;;;;;8.60;0.80;;;23.70;87.90;;;;;;4784122;29;20507;-82
2021/07/07 08:44:25;;;;;;;5.05;1.33;;;23.70;87.70;;;;;;4784321;29;20039;-83
2021/07/07 08:46:52;;;;;;;2.83;0.60;;;23.70;86.80;;;;;;4763820;29;20053;-82
2021/07/07 08:49:21;;;;;;;3.50;0.80;;;23.60;87.00;;;;;;4770943;29;20046;-82
2021/07/07 08:51:48;;;;;;;3.25;0.82;;;23.70;86.90;;;;;;4786347;29;20035;-83
2021/07/07 08:54:17;;;;;;;2.60;0.60;;;23.80;86.80;;;;;;4771472;29;20046;-82
2021/07/07 08:56:45;;;;;;;4.28;0.70;;;24.00;86.20;;;;;;4801632;29;20042;-83
2021/07/07 08:59:15;;;;;;;6.88;1.75;;;24.00;85.60;;;;;;4799049;29;20054;-83
2021/07/07 09:02:03;;;;;;;6.22;1.23;;;24.10;85.60;;;;;;4784133;29;20046;-82
2021/07/07 09:04:44;;;;;;;5.28;0.90;;;24.00;85.20;;;;;;4802221;29;20049;-82
2021/07/07 09:07:21;;;;;;;4.07;0.68;;;23.90;85.10;;;;;;4755803;29;20054;-82
2021/07/07 09:09:50;;;;;;;4.78;0.80;;;23.70;85.10;;;;;;4783759;29;20039;-82
2021/07/07 09:12:22;;;;;;;2.88;0.60;;;23.60;85.30;;;;;;4800310;29;20039;-80
2021/07/07 09:15:00;;;;;;;3.28;0.60;;;23.70;85.50;;;;;;4802362;29;20031;-81
2021/07/07 09:17:26;;;;;;;3.53;0.60;;;24.00;85.10;;;;;;4784884;29;20038;-81
2021/07/07 09:19:53;;;;;;;4.80;0.80;;;24.40;84.30;;;;;;4784979;29;20471;-81
2021/07/07 09:22:24;;;;;;;3.83;0.70;;;24.80;82.50;;;;;;4784626;29;20046;-81
2021/07/07 09:25:00;;;;;;;4.25;0.73;;;25.10;80.50;;;;;;4785619;29;20054;-81
2021/07/07 09:27:34;;;;;;;3.85;0.50;;;25.10;79.60;;;;;;4767547;29;20065;-82
2021/07/07 09:30:10;;;;;;;4.38;0.70;;;25.00;79.80;;;;;;4785440;29;20071;-81
2021/07/07 09:32:51;;;;;;;5.65;0.85;;;24.80;79.30;;;;;;4760339;29;20055;-82
2021/07/07 09:35:20;;;;;;;4.18;0.70;;;24.70;79.90;;;;;;4801057;29;20046;-81
2021/07/07 09:37:55;;;;;;;3.83;0.85;;;24.70;79.50;;;;;;4802116;29;20054;-82
2021/07/07 09:40:23;;;;;;;7.15;0.95;;;24.70;79.40;;;;;;4782587;29;20054;-81
2021/07/07 09:42:50;;;;;;;4.00;0.80;;;24.80;78.60;;;;;;4785515;29;20065;-82
2021/07/07 09:45:19;;;;;;;4.30;1.17;;;24.80;78.70;;;;;;4784132;29;20065;-81
2021/07/07 09:47:47;;;;;;;6.47;1.27;;;25.00;78.70;;;;;;4785745;29;20047;-81
2021/07/07 09:50:15;;;;;;;5.55;0.90;;;25.40;77.50;;;;;;4802387;29;20042;-81
2021/07/07 09:52:43;;;;;;;4.95;0.98;;;25.50;75.90;;;;;;4768595;29;20046;-81
2021/07/07 09:55:11;;;;;;;4.95;0.90;;;25.60;75.00;;;;;;4783821;29;20586;-81
2021/07/07 09:57:46;;;;;;;6.57;0.85;;;25.40;73.90;;;;;;4784075;29;20046;-81
2021/07/07 10:00:15;;;;;;;7.20;0.73;;;25.30;73.20;;;;;;4789652;29;20050;-81
2021/07/07 10:02:42;;;;;;;5.05;0.80;;;25.30;73.50;;;;;;4782656;29;20084;-81
2021/07/07 10:05:13;;;;;;;5.75;0.82;;;25.30;73.10;;;;;;4784755;29;20043;-82
2021/07/07 10:07:41;;;;;;;2.40;0.60;;;25.20;73.60;;;;;;4791539;29;20042;-81
2021/07/07 10:10:09;;;;;;;3.38;0.45;;;25.10;74.00;;;;;;4785955;29;20054;-81
2021/07/07 10:12:36;;;;;;;5.03;0.68;;;25.20;74.10;;;;;;4800360;29;20058;-81
2021/07/07 10:15:03;;;;;;;5.97;0.85;;;25.30;74.30;;;;;;4784682;29;20039;-81
2021/07/07 10:17:31;;;;;;;3.95;0.50;;;25.50;73.70;;;;;;4783230;29;20055;-81
2021/07/07 10:19:57;;;;;;;5.32;0.70;;;25.70;73.40;;;;;;4781800;29;20045;-82
2021/07/07 10:22:25;;;;;;;3.63;0.73;;;25.90;73.10;;;;;;4766444;29;20066;-81
2021/07/07 10:24:54;;;;;;;5.53;0.82;;;26.10;72.60;;;;;;4785193;29;20057;-81
2021/07/07 10:27:24;;;;;;;3.15;0.70;;;26.40;72.50;;;;;;4783868;29;20526;-76
2021/07/07 10:29:50;;;;;;;4.30;0.80;;;26.50;71.70;;;;;;4788319;29;20062;-77
2021/07/07 10:32:17;;;;;;;4.30;0.60;;;26.70;71.00;;;;;;4801495;29;20050;-77
2021/07/07 10:34:47;;;;;;;5.22;0.60;;;26.90;70.80;;;;;;4803904;29;20039;-78
2021/07/07 10:37:14;;;;;;;4.25;0.90;;;27.10;69.10;;;;;;4786346;29;20092;-78
2021/07/07 10:39:40;;;;;;;5.82;0.82;;;27.10;68.70;;;;;;4802568;29;20053;-78
2021/07/07 10:42:08;;;;;;;3.50;0.68;;;27.10;68.20;;;;;;4787311;29;20054;-78
2021/07/07 10:44:38;;;;;;;4.25;0.70;;;27.00;67.80;;;;;;4788957;29;20400;-77
2021/07/07 10:47:12;;;;;;;4.95;0.90;;;26.80;67.00;;;;;;4783450;29;20042;-77
2021/07/07 10:49:47;;;;;;;4.57;0.68;;;26.40;66.90;;;;;;4783844;29;20034;-77
2021/07/07 10:52:17;;;;;;;3.72;0.80;;;26.20;67.90;;;;;;4802159;29;20050;-77
2021/07/07 10:54:58;;;;;;;3.70;0.70;;;26.30;69.20;;;;;;4801590;29;20031;-77
2021/07/07 10:57:35;;;;;;;4.82;1.30;;;26.90;68.80;;;;;;4784227;29;20042;-78
2021/07/07 11:00:07;;;;;;;5.38;0.60;;;27.20;66.30;;;;;;4803503;29;20419;-78
2021/07/07 11:02:33;;;;;;;3.13;0.60;;;27.30;65.70;;;;;;4803297;29;20704;-79
2021/07/07 11:05:02;;;;;;;2.05;0.52;;;27.40;65.60;;;;;;4759612;29;21291;-79
2021/07/07 11:07:32;;;;;;;3.85;1.65;;;27.40;65.40;;;;;;4773379;29;20407;-78
2021/07/07 11:10:17;;;;;;;3.85;1.10;;;27.50;65.00;;;;;;4789181;29;20109;-79
2021/07/07 11:12:44;;;;;;;2.67;0.88;;;27.90;64.80;;;;;;4786405;29;20062;-79
2021/07/07 11:15:15;;;;;;;4.00;0.70;;;27.90;64.30;;;;;;4805389;29;20038;-81
2021/07/07 11:17:43;;;;;;;3.65;0.60;;;27.70;64.80;;;;;;4805463;29;20042;-80
2021/07/07 11:20:18;;;;;;;5.80;0.73;;;27.50;65.20;;;;;;4783488;29;20031;-80
2021/07/07 11:22:47;;;;;;;4.22;0.68;;;27.00;64.80;;;;;;4800720;29;20054;-79
2021/07/07 11:25:16;;;;;;;2.63;0.88;;;26.50;65.30;;;;;;4804618;29;20035;-79
2021/07/07 11:27:44;;;;;;;3.83;0.60;;;26.20;66.00;;;;;;4766605;29;20049;-79
2021/07/07 11:30:16;;;;;;;3.40;0.60;;;26.10;66.60;;;;;;4801094;29;20030;-79
2021/07/07 11:32:45;;;;;;;2.50;0.60;;;26.10;66.00;;;;;;4745106;29;20419;-80
2021/07/07 11:35:22;;;;;;;4.90;1.13;;;26.10;66.10;;;;;;4790147;29;20510;-80
2021/07/07 11:37:57;;;;;;;5.90;1.10;;;26.30;66.60;;;;;;4787903;29;20034;-79
2021/07/07 11:40:24;;;;;;;2.42;0.60;;;26.50;66.40;;;;;;4772567;29;20038;-80
2021/07/07 11:43:04;;;;;;;3.97;0.75;;;26.70;65.90;;;;;;4785877;29;20054;-79
2021/07/07 11:45:31;;;;;;;3.88;0.77;;;26.90;66.30;;;;;;4783291;29;20399;-79
2021/07/07 11:48:11;;;;;;;2.28;0.50;;;26.90;66.00;;;;;;4789062;29;20049;-80
2021/07/07 11:50:43;;;;;;;2.13;0.57;;;27.00;65.50;;;;;;4800774;29;20810;-78
2021/07/07 11:53:10;;;;;;;4.00;0.77;;;27.10;64.80;;;;;;4804723;29;20039;-78
2021/07/07 11:55:58;;;;;;;5.00;0.70;;;27.20;64.10;;;;;;4806250;29;20042;-78
2021/07/07 11:58:26;;;;;;;3.65;0.70;;;27.40;63.00;;;;;;4792865;29;20526;-78
2021/07/07 12:00:54;;;;;;;4.43;0.60;;;27.60;62.00;;;;;;4788499;29;20045;-78
2021/07/07 12:03:23;;;;;;;3.67;0.60;;;27.60;62.20;;;;;;4802554;29;20050;-78
2021/07/07 12:05:56;;;;;;;2.17;0.50;;;27.70;62.40;;;;;;4802273;29;20039;-79
2021/07/07 12:08:29;;;;;;;2.70;0.73;;;27.70;62.10;;;;;;4803633;29;20039;-78
2021/07/07 12:11:16;;;;;;;3.78;0.50;;;27.80;62.40;;;;;;4803394;29;20054;-78
2021/07/07 12:13:48;;;;;;;2.20;0.55;;;28.20;62.30;;;;;;4787628;29;20058;-79
2021/07/07 12:16:33;;;;;;;4.40;0.70;;;28.80;60.60;;;;;;4796795;29;20042;-77
2021/07/07 12:19:07;;;;;;;1.83;0.60;;;29.30;59.50;;;;;;4803725;29;20038;-78
2021/07/07 12:21:48;;;;;;;2.50;0.60;;;30.00;58.10;;;;;;4805478;29;20042;-78
2021/07/07 12:24:22;;;;;;;3.22;0.70;;;30.30;55.90;;;;;;4803420;29;20059;-77
2021/07/07 12:26:51;;;;;;;3.03;0.50;;;30.30;56.00;;;;;;4805078;29;20570;-78
2021/07/07 12:29:29;;;;;;;2.28;0.55;;;30.70;53.80;;;;;;4789053;29;20039;-77
2021/07/07 12:32:01;;;;;;;2.35;0.40;;;30.90;53.70;;;;;;4807451;29;20065;-78
2021/07/07 12:34:30;;;;;;;1.25;0.30;;;31.40;51.30;;;;;;4808043;29;20483;-78
2021/07/07 12:36:59;;;;;;;2.50;0.40;;;31.20;50.40;;;;;;4789023;29;20035;-77
2021/07/07 12:39:29;;;;;;;1.35;0.40;;;30.80;50.30;;;;;;4807724;29;20053;-78
2021/07/07 12:41:58;;;;;;;1.70;0.80;;;30.90;51.20;;;;;;4805503;29;20054;-78
2021/07/07 12:44:31;;;;;;;1.73;0.40;;;31.20;50.30;;;;;;4773694;29;20467;-78
2021/07/07 12:47:03;;;;;;;2.65;0.43;;;31.50;49.60;;;;;;4789447;29;20061;-78
2021/07/07 12:49:42;;;;;;;2.58;0.50;;;32.20;49.00;;;;;;4799070;29;20047;-78
2021/07/07 12:52:41;;;;;;;2.78;0.40;;;32.80;47.70;;;;;;4799729;29;20043;-78
2021/07/07 12:55:23;;;;;;;1.88;0.50;;;33.00;46.30;;;;;;4784290;29;20031;-78